createdAt,value
2019-05-30T00:00:53.856Z,24.23
2019-05-30T00:03:25.983Z,24.21
2019-05-30T00:05:58.309Z,24.19
2019-05-30T00:08:30.188Z,24.17
2019-05-30T00:11:02.778Z,24.14
2019-05-30T00:13:34.647Z,24.11
2019-05-30T00:16:06.745Z,24.09
2019-05-30T00:18:38.379Z,24.07
2019-05-30T00:21:10.273Z,24.03
2019-05-30T00:23:42.188Z,24.01
2019-05-30T00:26:13.984Z,24.00
2019-05-30T00:28:45.704Z,23.98
2019-05-30T00:31:17.584Z,23.95
2019-05-30T00:33:49.290Z,23.94
2019-05-30T00:36:21.106Z,23.94
2019-05-30T00:38:52.939Z,23.92
2019-05-30T00:41:24.731Z,23.90
2019-05-30T00:43:57.808Z,23.89
2019-05-30T00:46:29.827Z,23.87
2019-05-30T00:49:02.417Z,23.85
2019-05-30T00:51:34.488Z,23.83
2019-05-30T00:54:07.025Z,23.83
2019-05-30T00:56:38.873Z,23.81
2019-05-30T00:59:11.592Z,23.80
2019-05-30T01:01:43.251Z,23.79
2019-05-30T01:04:15.027Z,23.78
2019-05-30T01:06:46.685Z,23.75
2019-05-30T01:09:18.584Z,23.73
2019-05-30T01:11:50.175Z,23.70
2019-05-30T01:14:22.007Z,23.67
2019-05-30T01:16:53.699Z,23.66
2019-05-30T01:19:25.294Z,23.65
2019-05-30T01:21:57.153Z,23.63
2019-05-30T01:24:29.433Z,23.62
2019-05-30T01:27:01.431Z,23.59
2019-05-30T01:29:33.197Z,23.56
2019-05-30T01:32:07.570Z,23.54
2019-05-30T01:34:39.382Z,23.52
2019-05-30T01:37:11.039Z,23.50
2019-05-30T01:39:42.945Z,23.49
2019-05-30T01:42:14.818Z,23.48
2019-05-30T01:44:46.716Z,23.47
2019-05-30T01:47:18.558Z,23.45
2019-05-30T01:49:50.293Z,23.43
2019-05-30T01:52:22.046Z,23.39
2019-05-30T01:54:54.018Z,23.37
2019-05-30T01:57:25.867Z,23.37
2019-05-30T01:59:58.684Z,23.35
2019-05-30T02:02:30.736Z,23.34
2019-05-30T02:05:03.037Z,23.32
2019-05-30T02:07:34.927Z,23.29
2019-05-30T02:10:07.877Z,23.29
2019-05-30T02:12:39.922Z,23.27
2019-05-30T02:15:11.533Z,23.25
2019-05-30T02:17:43.588Z,23.25
2019-05-30T02:20:15.243Z,23.25
2019-05-30T02:22:46.879Z,23.25
2019-05-30T02:25:18.777Z,23.24
2019-05-30T02:27:50.534Z,23.23
2019-05-30T02:30:22.235Z,23.23
2019-05-30T02:32:54.283Z,23.24
2019-05-30T02:35:26.111Z,23.23
2019-05-30T02:37:58.012Z,23.22
2019-05-30T02:40:29.700Z,23.24
2019-05-30T02:43:03.407Z,23.24
2019-05-30T02:45:35.028Z,23.25
2019-05-30T02:48:07.417Z,23.26
2019-05-30T02:50:39.326Z,23.26
2019-05-30T02:53:13.070Z,23.28
2019-05-30T02:55:45.551Z,23.28
2019-05-30T02:58:17.368Z,23.30
2019-05-30T03:00:49.076Z,23.31
2019-05-30T03:03:20.913Z,23.34
2019-05-30T03:05:52.619Z,23.38
2019-05-30T03:08:24.687Z,23.39
2019-05-30T03:10:56.595Z,23.44
2019-05-30T03:13:28.517Z,23.57
2019-05-30T03:16:01.969Z,23.77
2019-05-30T03:18:33.966Z,23.95
2019-05-30T03:21:08.158Z,24.12
2019-05-30T03:23:39.202Z,24.33
2019-05-30T03:26:13.732Z,24.48
2019-05-30T03:28:44.713Z,24.49
2019-05-30T03:31:28.161Z,24.44
2019-05-30T03:33:51.254Z,24.34
2019-05-30T03:36:30.267Z,24.32
2019-05-30T03:38:56.282Z,24.35
2019-05-30T03:41:28.327Z,24.41
2019-05-30T03:44:00.526Z,24.51
2019-05-30T03:46:37.915Z,24.61
2019-05-30T03:49:18.241Z,24.76
2019-05-30T03:51:51.020Z,24.94
2019-05-30T03:54:22.907Z,25.14
2019-05-30T03:57:13.968Z,25.28
2019-05-30T03:59:49.673Z,25.35
2019-05-30T04:02:24.672Z,25.39
2019-05-30T04:05:01.005Z,25.43
2019-05-30T04:07:32.672Z,25.51
2019-05-30T04:10:08.977Z,25.58
2019-05-30T04:12:46.791Z,25.56
2019-05-30T04:15:33.165Z,25.58
2019-05-30T04:18:06.829Z,25.59
2019-05-30T04:20:38.491Z,25.49
2019-05-30T04:23:11.241Z,25.45
2019-05-30T04:25:43.889Z,25.45
2019-05-30T04:28:16.176Z,25.40
2019-05-30T04:30:48.814Z,25.41
2019-05-30T04:33:32.660Z,25.43
2019-05-30T04:35:54.262Z,25.39
2019-05-30T04:38:26.028Z,25.38
2019-05-30T04:40:57.894Z,25.39
2019-05-30T04:43:29.586Z,25.37
2019-05-30T04:46:01.578Z,25.35
2019-05-30T04:48:33.500Z,25.33
2019-05-30T04:51:05.579Z,25.34
2019-05-30T04:53:37.329Z,25.33
2019-05-30T04:56:10.302Z,25.27
2019-05-30T04:58:42.930Z,25.29
2019-05-30T05:01:15.432Z,25.33
2019-05-30T05:03:47.885Z,25.36
2019-05-30T05:06:19.945Z,25.34
2019-05-30T05:08:52.171Z,25.35
2019-05-30T05:11:25.452Z,25.37
2019-05-30T05:13:57.667Z,25.39
2019-05-30T05:16:35.695Z,25.42
2019-05-30T05:19:03.069Z,25.43
2019-05-30T05:21:34.962Z,25.46
2019-05-30T05:24:06.685Z,25.51
2019-05-30T05:26:38.431Z,25.50
2019-05-30T05:29:10.003Z,25.56
2019-05-30T05:31:41.657Z,25.60
2019-05-30T05:34:14.421Z,25.65
2019-05-30T05:36:46.161Z,25.70
2019-05-30T05:39:18.087Z,25.73
2019-05-30T05:41:49.795Z,25.79
2019-05-30T05:44:22.436Z,25.86
2019-05-30T05:46:54.521Z,25.92
2019-05-30T05:49:26.568Z,26.02
2019-05-30T05:51:58.485Z,26.07
2019-05-30T05:54:30.256Z,26.16
2019-05-30T05:57:02.141Z,26.25
2019-05-30T05:59:33.864Z,26.34
2019-05-30T06:02:05.763Z,26.35
2019-05-30T06:04:37.778Z,26.37
2019-05-30T06:07:09.686Z,26.44
2019-05-30T06:09:41.501Z,26.53
2019-05-30T06:12:13.435Z,26.60
2019-05-30T06:14:45.428Z,26.66
2019-05-30T06:17:17.231Z,26.65
2019-05-30T06:19:48.943Z,26.71
2019-05-30T06:22:21.473Z,26.74
2019-05-30T06:24:53.345Z,26.78
2019-05-30T06:27:26.152Z,26.85
2019-05-30T06:29:57.899Z,26.90
2019-05-30T06:32:29.755Z,26.99
2019-05-30T06:35:01.646Z,27.05
2019-05-30T06:37:33.525Z,27.14
2019-05-30T06:40:06.419Z,27.24
2019-05-30T06:42:38.322Z,27.27
2019-05-30T06:45:10.240Z,27.31
2019-05-30T06:47:42.222Z,27.34
2019-05-30T06:50:14.048Z,27.37
2019-05-30T06:52:53.410Z,27.42
2019-05-30T06:55:37.692Z,27.46
2019-05-30T06:58:45.575Z,27.58
2019-05-30T07:01:23.792Z,27.73
2019-05-30T07:03:55.998Z,27.89
2019-05-30T07:06:29.293Z,28.06
2019-05-30T07:09:01.473Z,28.30
2019-05-30T07:11:34.493Z,28.66
2019-05-30T07:14:06.193Z,29.07
2019-05-30T07:16:38.918Z,29.58
2019-05-30T07:19:10.692Z,29.92
2019-05-30T07:21:53.474Z,30.16
2019-05-30T07:24:29.856Z,30.50
2019-05-30T07:27:01.969Z,30.89
2019-05-30T07:29:34.448Z,31.24
2019-05-30T07:32:13.214Z,31.51
2019-05-30T07:35:05.589Z,31.77
2019-05-30T07:37:24.511Z,31.96
2019-05-30T07:39:56.401Z,32.15
2019-05-30T07:42:28.671Z,32.38
2019-05-30T07:45:01.350Z,32.57
2019-05-30T07:47:34.392Z,32.76
2019-05-30T07:50:06.697Z,32.78
2019-05-30T07:52:39.609Z,32.81
2019-05-30T07:55:11.264Z,32.79
2019-05-30T07:57:43.040Z,32.74
2019-05-30T08:00:15.508Z,32.74
2019-05-30T08:02:47.263Z,32.72
2019-05-30T08:05:24.371Z,32.64
2019-05-30T08:07:52.264Z,32.44
2019-05-30T08:10:24.032Z,32.38
2019-05-30T08:12:56.016Z,32.33
2019-05-30T08:15:29.182Z,32.30
2019-05-30T08:18:00.941Z,32.26
2019-05-30T08:20:33.938Z,32.13
2019-05-30T08:23:09.503Z,31.95
2019-05-30T08:25:39.319Z,31.72
2019-05-30T08:28:11.040Z,31.54
2019-05-30T08:30:42.952Z,31.35
2019-05-30T08:33:14.661Z,31.21
2019-05-30T08:35:49.884Z,31.06
2019-05-30T08:38:19.943Z,30.94
2019-05-30T08:40:51.730Z,30.87
2019-05-30T08:43:23.491Z,30.83
2019-05-30T08:45:55.542Z,30.81
2019-05-30T08:48:27.318Z,30.79
2019-05-30T08:50:59.063Z,30.77
2019-05-30T08:53:30.718Z,30.74
2019-05-30T08:56:02.641Z,30.72
2019-05-30T08:58:34.588Z,30.69
2019-05-30T09:01:06.383Z,30.67
2019-05-30T09:03:38.560Z,30.66
2019-05-30T09:06:10.766Z,30.67
2019-05-30T09:08:42.669Z,30.62
2019-05-30T09:11:14.712Z,30.61
2019-05-30T09:13:46.829Z,30.62
2019-05-30T09:16:18.858Z,30.64
2019-05-30T09:18:50.789Z,30.63
2019-05-30T09:21:22.609Z,30.68
2019-05-30T09:23:57.742Z,30.68
2019-05-30T09:26:27.978Z,30.69
2019-05-30T09:28:59.797Z,30.68
2019-05-30T09:31:32.691Z,30.71
2019-05-30T09:34:04.647Z,30.72
2019-05-30T09:36:36.382Z,30.72
2019-05-30T09:39:08.711Z,30.72
2019-05-30T09:41:42.067Z,30.71
2019-05-30T09:44:16.967Z,30.70
2019-05-30T09:46:50.413Z,30.71
2019-05-30T09:49:22.503Z,30.75
2019-05-30T09:51:55.250Z,30.80
2019-05-30T09:54:31.462Z,30.87
2019-05-30T09:57:03.351Z,30.90
2019-05-30T09:59:36.864Z,30.90
2019-05-30T10:02:08.999Z,30.89
2019-05-30T10:04:42.054Z,30.90
2019-05-30T10:07:14.320Z,30.89
2019-05-30T10:09:47.273Z,30.88
2019-05-30T10:12:20.642Z,30.85
2019-05-30T10:14:52.924Z,30.87
2019-05-30T10:17:25.042Z,30.91
2019-05-30T10:19:57.314Z,30.97
2019-05-30T10:22:29.135Z,31.06
2019-05-30T10:25:01.130Z,31.09
2019-05-30T10:27:32.850Z,31.15
2019-05-30T10:30:09.289Z,31.18
2019-05-30T10:32:41.257Z,31.22
2019-05-30T10:35:12.851Z,31.30
2019-05-30T10:37:46.745Z,31.38
2019-05-30T10:40:18.105Z,31.44
2019-05-30T10:42:51.281Z,31.48
2019-05-30T10:45:26.760Z,31.48
2019-05-30T10:48:01.415Z,31.51
2019-05-30T10:50:33.435Z,31.47
2019-05-30T10:53:07.832Z,31.41
2019-05-30T10:55:39.775Z,31.39
2019-05-30T10:58:12.268Z,31.33
2019-05-30T11:00:50.926Z,31.24
2019-05-30T11:03:25.131Z,31.20
2019-05-30T11:06:12.809Z,31.18
2019-05-30T11:08:44.573Z,31.16
2019-05-30T11:11:16.238Z,31.13
2019-05-30T11:13:48.962Z,31.11
2019-05-30T11:16:20.805Z,31.11
2019-05-30T11:18:53.168Z,31.13
2019-05-30T11:21:26.184Z,31.16
2019-05-30T11:23:58.385Z,31.18
2019-05-30T11:26:30.691Z,31.21
2019-05-30T11:29:02.645Z,31.20
2019-05-30T11:31:34.312Z,31.17
2019-05-30T11:34:06.136Z,31.15
2019-05-30T11:36:37.851Z,31.14
2019-05-30T11:39:09.610Z,31.12
2019-05-30T11:41:41.425Z,31.11
2019-05-30T11:44:13.160Z,31.12
2019-05-30T11:46:45.035Z,31.11
2019-05-30T11:49:18.467Z,31.11
2019-05-30T11:51:50.205Z,31.12
2019-05-30T11:54:21.874Z,31.08
2019-05-30T11:56:54.012Z,31.06
2019-05-30T11:59:27.107Z,30.99
2019-05-30T12:01:58.957Z,30.95
2019-05-30T12:04:30.742Z,30.93
2019-05-30T12:07:02.343Z,30.93
2019-05-30T12:09:34.171Z,30.93
2019-05-30T12:12:05.880Z,30.94
2019-05-30T12:14:37.860Z,30.94
2019-05-30T12:17:09.803Z,30.95
2019-05-30T12:19:41.546Z,30.94
2019-05-30T12:22:13.295Z,30.92
2019-05-30T12:24:45.417Z,30.91
2019-05-30T12:30:22.744Z,30.85
2019-05-30T12:32:54.442Z,30.84
2019-05-30T12:35:26.113Z,30.84
2019-05-30T12:38:01.366Z,30.85
2019-05-30T12:40:31.858Z,30.85
2019-05-30T12:43:04.984Z,30.84
2019-05-30T12:45:37.416Z,30.80
2019-05-30T12:48:09.385Z,30.80
2019-05-30T12:50:41.557Z,30.78
2019-05-30T12:53:13.324Z,30.78
2019-05-30T12:55:45.324Z,30.77
2019-05-30T12:58:18.243Z,30.74
2019-05-30T13:00:51.432Z,30.71
2019-05-30T13:03:23.258Z,30.72
2019-05-30T13:05:57.069Z,30.74
2019-05-30T13:08:29.137Z,30.77
2019-05-30T13:11:01.703Z,30.82
2019-05-30T13:13:33.867Z,30.88
2019-05-30T13:16:08.529Z,30.89
2019-05-30T13:18:39.679Z,30.91
2019-05-30T13:21:11.713Z,30.91
2019-05-30T13:23:43.386Z,30.91
2019-05-30T13:26:15.388Z,30.89
2019-05-30T13:28:47.124Z,30.88
2019-05-30T13:31:18.931Z,30.88
2019-05-30T13:33:50.771Z,30.89
2019-05-30T13:36:22.872Z,30.90
2019-05-30T13:38:54.628Z,30.88
2019-05-30T13:41:26.554Z,30.89
2019-05-30T13:43:58.359Z,30.90
2019-05-30T13:46:30.220Z,30.92
2019-05-30T13:49:02.629Z,30.95
2019-05-30T13:51:34.632Z,30.97
2019-05-30T13:54:07.260Z,30.97
2019-05-30T13:56:39.061Z,30.95
2019-05-30T13:59:11.038Z,30.94
2019-05-30T14:01:42.753Z,30.89
2019-05-30T14:04:14.679Z,30.86
2019-05-30T14:06:46.705Z,30.81
2019-05-30T14:09:18.387Z,30.78
2019-05-30T14:11:51.278Z,30.73
2019-05-30T14:14:23.050Z,30.68
2019-05-30T14:16:54.980Z,30.61
2019-05-30T14:19:26.807Z,30.56
2019-05-30T14:21:58.540Z,30.51
2019-05-30T14:24:30.601Z,30.45
2019-05-30T14:27:03.430Z,30.41
2019-05-30T14:29:35.527Z,30.37
2019-05-30T14:32:07.929Z,30.31
2019-05-30T14:34:39.806Z,30.27
2019-05-30T14:37:12.615Z,30.24
2019-05-30T14:39:44.433Z,30.20
2019-05-30T14:42:16.317Z,30.15
2019-05-30T14:44:48.089Z,30.10
2019-05-30T14:47:19.775Z,30.04
2019-05-30T14:49:51.532Z,30.00
2019-05-30T14:52:23.367Z,29.97
2019-05-30T14:54:55.176Z,29.91
2019-05-30T14:57:27.099Z,29.87
2019-05-30T14:59:58.812Z,29.79
2019-05-30T15:02:30.792Z,29.70
2019-05-30T15:05:02.577Z,29.63
2019-05-30T15:07:34.691Z,29.54
2019-05-30T15:10:10.788Z,29.50
2019-05-30T15:12:42.776Z,29.48
2019-05-30T15:15:17.108Z,29.47
2019-05-30T15:17:48.211Z,29.46
2019-05-30T15:20:20.136Z,29.46
2019-05-30T15:22:51.967Z,29.45
2019-05-30T15:25:23.574Z,29.46
2019-05-30T15:27:55.297Z,29.44
2019-05-30T15:30:26.983Z,29.44
2019-05-30T15:32:59.090Z,29.44
2019-05-30T15:35:30.791Z,29.42
2019-05-30T15:38:02.681Z,29.41
2019-05-30T15:40:34.473Z,29.40
2019-05-30T15:43:07.305Z,29.39
2019-05-30T15:45:39.325Z,29.38
2019-05-30T15:48:12.277Z,29.39
2019-05-30T15:50:45.389Z,29.38
2019-05-30T15:53:17.494Z,29.37
2019-05-30T15:55:49.316Z,29.38
2019-05-30T15:58:21.102Z,29.37
2019-05-30T16:00:52.799Z,29.36
2019-05-30T16:03:24.913Z,29.36
2019-05-30T16:05:56.725Z,29.34
2019-05-30T16:08:28.606Z,29.33
2019-05-30T16:11:00.351Z,29.30
2019-05-30T16:13:32.336Z,29.30
2019-05-30T16:16:04.477Z,29.29
2019-05-30T16:18:36.555Z,29.29
2019-05-30T16:21:08.427Z,29.28
2019-05-30T16:23:40.632Z,29.27
2019-05-30T16:26:13.516Z,29.25
2019-05-30T16:28:45.603Z,29.22
2019-05-30T16:31:17.822Z,29.20
2019-05-30T16:33:49.898Z,29.16
2019-05-30T16:36:22.957Z,29.12
2019-05-30T16:38:54.746Z,29.09
2019-05-30T16:41:26.778Z,29.06
2019-05-30T16:43:58.622Z,29.01
2019-05-30T16:46:30.517Z,28.99
2019-05-30T16:49:02.632Z,28.94
2019-05-30T16:51:34.570Z,28.89
2019-05-30T16:54:06.303Z,28.84
2019-05-30T16:56:37.903Z,28.79
2019-05-30T16:59:09.768Z,28.75
2019-05-30T17:01:41.544Z,28.72
2019-05-30T17:04:14.813Z,28.70
2019-05-30T17:06:47.457Z,28.67
2019-05-30T17:09:19.282Z,28.63
2019-05-30T17:11:51.040Z,28.58
2019-05-30T17:14:23.944Z,28.55
2019-05-30T17:16:55.990Z,28.50
2019-05-30T17:19:28.039Z,28.46
2019-05-30T17:21:59.736Z,28.42
2019-05-30T17:24:31.564Z,28.39
2019-05-30T17:27:03.752Z,28.36
2019-05-30T17:29:35.675Z,28.32
2019-05-30T17:32:07.667Z,28.29
2019-05-30T17:34:39.780Z,28.25
2019-05-30T17:37:11.777Z,28.21
2019-05-30T17:39:43.787Z,28.17
2019-05-30T17:42:15.836Z,28.12
2019-05-30T17:44:48.711Z,28.06
2019-05-30T17:47:21.281Z,27.99
2019-05-30T17:49:53.498Z,27.94
2019-05-30T17:52:25.816Z,27.85
2019-05-30T17:54:58.043Z,27.79
2019-05-30T17:57:30.281Z,27.72
2019-05-30T18:00:02.372Z,27.67
2019-05-30T18:02:34.307Z,27.62
2019-05-30T18:05:07.277Z,27.57
2019-05-30T18:07:39.184Z,27.54
2019-05-30T18:10:12.744Z,27.48
2019-05-30T18:12:44.722Z,27.41
2019-05-30T18:15:16.602Z,27.36
2019-05-30T18:17:48.611Z,27.31
2019-05-30T18:22:52.810Z,27.25
2019-05-30T18:25:25.637Z,27.21
2019-05-30T18:27:57.526Z,27.20
2019-05-30T18:30:40.840Z,27.15
2019-05-30T18:33:12.972Z,27.04
2019-05-30T18:35:45.026Z,26.96
2019-05-30T18:38:17.239Z,26.91
2019-05-30T18:40:49.398Z,26.88
2019-05-30T18:43:22.653Z,26.87
2019-05-30T18:45:54.744Z,26.86
2019-05-30T18:48:27.267Z,26.85
2019-05-30T18:50:59.417Z,26.82
2019-05-30T18:53:32.534Z,26.77
2019-05-30T18:56:04.657Z,26.71
2019-05-30T18:58:37.490Z,26.70
2019-05-30T19:01:09.643Z,26.67
2019-05-30T19:03:42.643Z,26.65
2019-05-30T19:06:14.579Z,26.65
2019-05-30T19:08:46.473Z,26.63
2019-05-30T19:11:29.099Z,26.63
2019-05-30T19:13:52.475Z,26.61
2019-05-30T19:16:24.573Z,26.56
2019-05-30T19:18:56.474Z,26.47
2019-05-30T19:21:29.998Z,26.43
2019-05-30T19:24:02.148Z,26.38
2019-05-30T19:26:34.710Z,26.33
2019-05-30T19:29:06.914Z,26.29
2019-05-30T19:31:40.030Z,26.26
2019-05-30T19:34:12.181Z,26.24
2019-05-30T19:36:44.245Z,26.24
2019-05-30T19:39:16.216Z,26.26
2019-05-30T19:41:56.764Z,26.26
2019-05-30T19:44:22.959Z,26.26
2019-05-30T19:46:55.034Z,26.25
2019-05-30T19:49:28.273Z,26.24
2019-05-30T19:52:01.374Z,26.24
2019-05-30T19:54:33.370Z,26.23
2019-05-30T19:57:05.389Z,26.19
2019-05-30T19:59:37.939Z,26.15
2019-05-30T20:02:09.910Z,26.11
2019-05-30T20:04:42.004Z,26.05
2019-05-30T20:07:14.225Z,26.00
2019-05-30T20:10:00.516Z,25.99
2019-05-30T20:12:19.887Z,25.95
2019-05-30T20:14:51.793Z,25.91
2019-05-30T20:17:23.712Z,25.89
2019-05-30T20:19:55.690Z,25.86
2019-05-30T20:22:27.603Z,25.82
2019-05-30T20:24:59.491Z,25.78
2019-05-30T20:27:32.604Z,25.77
2019-05-30T20:30:06.441Z,25.77
2019-05-30T20:32:38.958Z,25.78
2019-05-30T20:35:12.487Z,25.80
2019-05-30T20:37:44.607Z,25.81
2019-05-30T20:40:16.566Z,25.83
2019-05-30T20:42:48.712Z,25.84
2019-05-30T20:45:21.955Z,25.86
2019-05-30T20:47:54.115Z,25.84
2019-05-30T20:50:26.006Z,25.80
2019-05-30T20:52:57.888Z,25.76
2019-05-30T20:55:29.687Z,25.71
2019-05-30T20:58:01.357Z,25.65
2019-05-30T21:00:40.361Z,25.62
2019-05-30T21:03:13.113Z,25.60
2019-05-30T21:05:46.042Z,25.57
2019-05-30T21:08:18.171Z,25.57
2019-05-30T21:10:50.212Z,25.53
2019-05-30T21:13:22.321Z,25.50
2019-05-30T21:15:54.325Z,25.47
2019-05-30T21:18:28.327Z,25.45
2019-05-30T21:21:00.362Z,25.44
2019-05-30T21:23:32.326Z,25.44
2019-05-30T21:26:04.232Z,25.43
2019-05-30T21:28:36.650Z,25.45
2019-05-30T21:31:08.718Z,25.47
2019-05-30T21:33:41.959Z,25.47
2019-05-30T21:36:14.547Z,25.47
2019-05-30T21:38:46.436Z,25.46
2019-05-30T21:41:18.401Z,25.45
2019-05-30T21:43:50.362Z,25.46
2019-05-30T21:46:22.319Z,25.45
2019-05-30T21:48:54.332Z,25.43
2019-05-30T21:51:26.275Z,25.41
2019-05-30T21:53:58.093Z,25.37
2019-05-30T21:56:30.078Z,25.30
2019-05-30T21:59:02.008Z,25.25
2019-05-30T22:01:34.190Z,25.23
2019-05-30T22:04:06.392Z,25.21
2019-05-30T22:06:38.176Z,25.17
2019-05-30T22:09:09.987Z,25.15
2019-05-30T22:11:41.973Z,25.17
2019-05-30T22:14:13.961Z,25.19
2019-05-30T22:16:46.032Z,25.18
2019-05-30T22:19:18.931Z,25.18
2019-05-30T22:21:52.205Z,25.11
2019-05-30T22:24:24.346Z,25.02
2019-05-30T22:26:56.279Z,24.98
2019-05-30T22:29:28.132Z,24.97
2019-05-30T22:31:59.816Z,24.95
2019-05-30T22:34:31.996Z,24.92
2019-05-30T22:37:03.978Z,24.94
2019-05-30T22:39:35.927Z,24.96
2019-05-30T22:42:07.896Z,24.96
2019-05-30T22:44:41.035Z,24.92
2019-05-30T22:47:12.859Z,24.89
2019-05-30T22:49:44.715Z,24.90
2019-05-30T22:52:16.583Z,24.88
2019-05-30T22:54:49.617Z,24.89
2019-05-30T22:57:21.552Z,24.87
2019-05-30T22:59:53.508Z,24.86
2019-05-30T23:02:25.288Z,24.85
2019-05-30T23:04:57.154Z,24.83
2019-05-30T23:07:28.984Z,24.82
2019-05-30T23:10:00.924Z,24.76
2019-05-30T23:12:32.901Z,24.71
2019-05-30T23:15:07.936Z,24.67
2019-05-30T23:17:39.758Z,24.66
2019-05-30T23:20:11.797Z,24.64
2019-05-30T23:22:43.584Z,24.64
2019-05-30T23:25:15.958Z,24.63
2019-05-30T23:27:47.800Z,24.63
2019-05-30T23:30:19.834Z,24.62
2019-05-30T23:32:52.146Z,24.61
2019-05-30T23:35:24.065Z,24.60
2019-05-30T23:37:56.710Z,24.60
2019-05-30T23:40:28.378Z,24.58
2019-05-30T23:43:00.305Z,24.59
2019-05-30T23:45:33.125Z,24.53
2019-05-30T23:48:05.034Z,24.48
2019-05-30T23:50:36.928Z,24.42
2019-05-30T23:53:09.829Z,24.37
2019-05-30T23:55:41.894Z,24.37
2019-05-30T23:58:13.891Z,24.35
